createdAt,value
2018-07-23T00:01:18.495Z,20.30
2018-07-23T00:03:47.487Z,20.30
2018-07-23T00:06:15.745Z,20.30
2018-07-23T00:08:44.001Z,20.30
2018-07-23T00:11:12.235Z,20.30
2018-07-23T00:13:40.493Z,20.30
2018-07-23T00:16:09.469Z,20.20
2018-07-23T00:18:38.518Z,20.20
2018-07-23T00:21:06.713Z,20.20
2018-07-23T00:23:34.989Z,20.30
2018-07-23T00:26:03.230Z,20.30
2018-07-23T00:28:31.447Z,20.30
2018-07-23T00:30:59.699Z,20.30
2018-07-23T00:33:27.916Z,20.20
2018-07-23T00:35:56.167Z,20.20
2018-07-23T00:38:24.394Z,20.30
2018-07-23T00:40:53.382Z,20.20
2018-07-23T00:43:22.374Z,20.30
2018-07-23T00:45:51.336Z,20.30
2018-07-23T00:48:19.566Z,20.30
2018-07-23T00:50:47.818Z,20.30
2018-07-23T00:53:16.803Z,20.30
2018-07-23T00:55:45.775Z,20.30
2018-07-23T00:58:13.998Z,20.30
2018-07-23T01:00:42.249Z,20.30
2018-07-23T01:03:11.243Z,20.30
2018-07-23T01:05:40.251Z,20.30
2018-07-23T01:08:09.285Z,20.30
2018-07-23T01:10:37.496Z,20.30
2018-07-23T01:13:05.767Z,20.30
2018-07-23T01:15:33.979Z,20.30
2018-07-23T01:18:03.008Z,20.30
2018-07-23T01:20:31.251Z,20.30
2018-07-23T01:23:00.241Z,20.30
2018-07-23T01:25:28.466Z,20.30
2018-07-23T01:27:56.737Z,20.30
2018-07-23T01:30:24.939Z,20.30
2018-07-23T01:32:53.221Z,20.30
2018-07-23T01:35:21.475Z,20.30
2018-07-23T01:37:49.709Z,20.30
2018-07-23T01:40:17.958Z,20.30
2018-07-23T01:42:46.177Z,20.30
2018-07-23T01:45:14.439Z,20.30
2018-07-23T01:47:42.658Z,20.30
2018-07-23T01:50:10.871Z,20.30
2018-07-23T01:52:39.854Z,20.30
2018-07-23T01:55:08.121Z,20.30
2018-07-23T01:57:36.363Z,20.20
2018-07-23T02:00:04.630Z,20.20
2018-07-23T02:02:32.886Z,20.10
2018-07-23T02:05:01.871Z,20.10
2018-07-23T02:07:30.836Z,20.10
2018-07-23T02:09:59.117Z,20.10
2018-07-23T02:12:27.316Z,20.00
2018-07-23T02:14:56.352Z,20.00
2018-07-23T02:17:24.587Z,20.00
2018-07-23T02:19:53.606Z,20.00
2018-07-23T02:22:21.818Z,20.00
2018-07-23T02:24:50.082Z,20.00
2018-07-23T02:27:18.288Z,20.00
2018-07-23T02:29:46.542Z,20.00
2018-07-23T02:32:14.752Z,20.00
2018-07-23T02:34:42.978Z,19.90
2018-07-23T02:37:11.185Z,19.90
2018-07-23T02:39:39.463Z,19.90
2018-07-23T02:42:07.680Z,19.90
2018-07-23T02:44:35.984Z,19.90
2018-07-23T02:47:04.175Z,19.90
2018-07-23T02:49:32.445Z,19.90
2018-07-23T02:52:00.642Z,19.90
2018-07-23T02:54:28.880Z,19.90
2018-07-23T02:56:57.126Z,19.90
2018-07-23T02:59:26.121Z,19.90
2018-07-23T03:01:55.085Z,19.90
2018-07-23T03:04:23.325Z,19.90
2018-07-23T03:06:51.569Z,19.90
2018-07-23T03:09:20.559Z,19.90
2018-07-23T03:11:49.578Z,19.90
2018-07-23T03:14:17.843Z,19.90
2018-07-23T03:16:46.102Z,19.90
2018-07-23T03:19:14.362Z,19.90
2018-07-23T03:21:42.626Z,19.90
2018-07-23T03:24:10.824Z,19.90
2018-07-23T03:26:39.802Z,19.90
2018-07-23T03:29:08.016Z,19.90
2018-07-23T03:31:36.228Z,19.90
2018-07-23T03:34:04.496Z,19.90
2018-07-23T03:36:32.758Z,19.90
2018-07-23T03:39:01.018Z,19.90
2018-07-23T03:41:29.998Z,19.80
2018-07-23T03:43:59.028Z,19.80
2018-07-23T03:46:27.229Z,19.80
2018-07-23T03:48:55.506Z,19.70
2018-07-23T03:51:23.748Z,19.70
2018-07-23T03:53:51.957Z,19.70
2018-07-23T03:56:20.212Z,19.70
2018-07-23T03:58:48.428Z,19.70
2018-07-23T04:01:16.647Z,19.70
2018-07-23T04:03:44.908Z,19.70
2018-07-23T04:06:13.936Z,19.80
2018-07-23T04:08:42.143Z,19.80
2018-07-23T04:11:10.362Z,19.80
2018-07-23T04:13:39.390Z,19.70
2018-07-23T04:16:07.638Z,19.70
2018-07-23T04:18:36.644Z,19.70
2018-07-23T04:21:04.834Z,19.70
2018-07-23T04:23:33.102Z,19.80
2018-07-23T04:26:01.356Z,19.80
2018-07-23T04:28:29.598Z,19.70
2018-07-23T04:30:57.808Z,19.80
2018-07-23T04:33:26.833Z,19.80
2018-07-23T04:35:55.074Z,19.80
2018-07-23T04:38:24.103Z,19.80
2018-07-23T04:40:52.343Z,19.80
2018-07-23T04:43:21.333Z,19.80
2018-07-23T04:45:50.308Z,19.90
2018-07-23T04:48:18.570Z,19.80
2018-07-23T04:50:46.777Z,19.90
2018-07-23T04:53:16.064Z,19.90
2018-07-23T04:55:44.306Z,19.90
2018-07-23T04:58:12.566Z,19.90
2018-07-23T05:00:40.784Z,20.00
2018-07-23T05:03:09.041Z,20.00
2018-07-23T05:05:39.983Z,20.00
2018-07-23T05:08:09.149Z,20.10
2018-07-23T05:10:38.777Z,20.10
2018-07-23T05:13:07.639Z,20.10
2018-07-23T05:15:36.641Z,20.20
2018-07-23T05:18:04.907Z,20.20
2018-07-23T05:20:33.881Z,20.20
2018-07-23T05:23:02.103Z,20.30
2018-07-23T05:25:30.438Z,20.30
2018-07-23T05:27:59.265Z,20.30
2018-07-23T05:30:27.507Z,20.40
2018-07-23T05:32:56.527Z,20.40
2018-07-23T05:35:25.519Z,20.40
2018-07-23T05:37:53.783Z,20.40
2018-07-23T05:40:21.990Z,20.40
2018-07-23T05:42:50.243Z,20.40
2018-07-23T05:45:19.220Z,20.40
2018-07-23T05:47:48.191Z,20.50
2018-07-23T05:50:16.874Z,20.50
2018-07-23T05:52:45.592Z,20.50
2018-07-23T05:55:14.590Z,20.50
2018-07-23T05:57:43.692Z,20.60
2018-07-23T06:00:11.886Z,20.60
2018-07-23T06:02:42.029Z,20.60
2018-07-23T06:05:10.267Z,20.70
2018-07-23T06:07:39.318Z,20.70
2018-07-23T06:10:07.734Z,20.70
2018-07-23T06:12:36.806Z,20.80
2018-07-23T06:15:07.782Z,20.80
2018-07-23T06:17:36.794Z,20.90
2018-07-23T06:20:05.044Z,20.90
2018-07-23T06:22:34.022Z,21.00
2018-07-23T06:25:02.298Z,21.00
2018-07-23T06:27:30.540Z,21.10
2018-07-23T06:29:58.766Z,21.20
2018-07-23T06:32:27.774Z,21.30
2018-07-23T06:34:57.074Z,21.30
2018-07-23T06:37:25.330Z,21.30
2018-07-23T06:39:53.592Z,21.40
2018-07-23T06:42:21.776Z,21.40
2018-07-23T06:44:50.764Z,21.50
2018-07-23T06:47:19.019Z,21.50
2018-07-23T06:49:47.275Z,21.50
2018-07-23T06:52:15.515Z,21.60
2018-07-23T06:54:43.743Z,21.50
2018-07-23T06:57:11.965Z,21.60
2018-07-23T06:59:40.209Z,21.60
2018-07-23T07:02:08.445Z,21.60
2018-07-23T07:04:36.680Z,21.70
2018-07-23T07:07:04.888Z,21.70
2018-07-23T07:09:34.995Z,21.80
2018-07-23T07:12:03.987Z,21.90
2018-07-23T07:14:32.223Z,21.90
2018-07-23T07:17:00.425Z,21.90
2018-07-23T07:19:28.687Z,21.90
2018-07-23T07:21:56.897Z,21.90
2018-07-23T07:24:25.162Z,22.00
2018-07-23T07:26:53.399Z,22.00
2018-07-23T07:29:22.481Z,22.00
2018-07-23T07:31:50.704Z,22.10
2018-07-23T07:34:18.944Z,22.10
2018-07-23T07:36:47.157Z,22.10
2018-07-23T07:39:16.149Z,22.30
2018-07-23T07:41:45.135Z,22.30
2018-07-23T07:44:13.417Z,22.30
2018-07-23T07:46:42.482Z,22.40
2018-07-23T07:49:10.695Z,22.50
2018-07-23T07:51:39.720Z,22.60
2018-07-23T07:54:10.313Z,22.60
2018-07-23T07:56:38.519Z,22.70
2018-07-23T07:59:06.780Z,22.70
2018-07-23T08:01:35.011Z,22.80
2018-07-23T08:04:03.227Z,22.80
2018-07-23T08:06:32.987Z,23.00
2018-07-23T08:09:01.221Z,23.00
2018-07-23T08:11:30.235Z,23.20
2018-07-23T08:13:58.448Z,23.20
2018-07-23T08:16:27.560Z,23.30
2018-07-23T08:18:55.827Z,23.30
2018-07-23T08:21:24.047Z,23.50
2018-07-23T08:23:52.347Z,23.50
2018-07-23T08:26:20.599Z,23.60
2018-07-23T08:28:49.581Z,23.80
2018-07-23T08:31:18.567Z,23.90
2018-07-23T08:33:47.161Z,23.80
2018-07-23T08:36:15.382Z,23.90
2018-07-23T08:38:43.611Z,24.00
2018-07-23T08:41:12.633Z,24.10
2018-07-23T08:43:40.889Z,24.10
2018-07-23T08:46:09.665Z,24.20
2018-07-23T08:48:38.586Z,24.30
2018-07-23T08:51:07.595Z,24.30
2018-07-23T08:53:35.854Z,24.30
2018-07-23T08:56:04.878Z,24.30
2018-07-23T08:58:33.122Z,24.30
2018-07-23T09:01:02.142Z,24.50
2018-07-23T09:03:30.403Z,24.50
2018-07-23T09:05:58.661Z,24.50
2018-07-23T09:08:28.217Z,24.60
2018-07-23T09:10:56.377Z,24.60
2018-07-23T09:13:24.643Z,24.70
2018-07-23T09:15:53.635Z,24.80
2018-07-23T09:18:23.533Z,24.70
2018-07-23T09:20:52.585Z,24.80
2018-07-23T09:23:20.822Z,24.70
2018-07-23T09:25:49.041Z,24.80
2018-07-23T09:28:17.240Z,24.90
2018-07-23T09:30:46.321Z,24.90
2018-07-23T09:33:14.478Z,24.90
2018-07-23T09:35:42.695Z,25.00
2018-07-23T09:38:11.678Z,25.10
2018-07-23T09:40:39.934Z,25.00
2018-07-23T09:43:08.182Z,25.10
2018-07-23T09:45:40.253Z,25.20
2018-07-23T09:48:08.404Z,25.20
2018-07-23T09:50:36.688Z,25.20
2018-07-23T09:53:05.635Z,25.30
2018-07-23T09:55:33.874Z,25.30
2018-07-23T09:58:02.086Z,25.30
2018-07-23T10:00:30.984Z,25.20
2018-07-23T10:02:59.312Z,25.30
2018-07-23T10:05:27.515Z,25.40
2018-07-23T10:07:55.719Z,25.40
2018-07-23T10:10:23.964Z,25.50
2018-07-23T10:12:52.170Z,25.60
2018-07-23T10:15:21.699Z,25.50
2018-07-23T10:17:50.716Z,25.60
2018-07-23T10:20:18.983Z,25.60
2018-07-23T10:22:47.173Z,25.70
2018-07-23T10:25:15.429Z,25.80
2018-07-23T10:27:43.678Z,25.80
2018-07-23T10:30:11.905Z,25.90
2018-07-23T10:32:40.140Z,25.90
2018-07-23T10:35:08.411Z,26.10
2018-07-23T10:37:36.993Z,26.10
2018-07-23T10:40:05.258Z,26.20
2018-07-23T10:42:33.463Z,26.10
2018-07-23T10:45:02.465Z,26.40
2018-07-23T10:47:30.728Z,26.40
2018-07-23T10:49:58.929Z,26.50
2018-07-23T10:52:27.179Z,26.60
2018-07-23T10:54:56.203Z,26.80
2018-07-23T10:57:24.454Z,26.80
2018-07-23T10:59:52.661Z,26.90
2018-07-23T11:02:21.212Z,27.00
2018-07-23T11:04:50.203Z,27.30
2018-07-23T11:07:19.195Z,27.40
2018-07-23T11:09:47.438Z,27.50
2018-07-23T11:12:15.699Z,27.60
2018-07-23T11:14:43.908Z,27.80
2018-07-23T11:17:12.120Z,28.00
2018-07-23T11:19:40.397Z,28.20
2018-07-23T11:22:09.410Z,28.60
2018-07-23T11:24:37.688Z,28.60
2018-07-23T11:27:05.897Z,28.80
2018-07-23T11:29:34.158Z,29.10
2018-07-23T11:32:02.393Z,29.30
2018-07-23T11:34:30.622Z,29.40
2018-07-23T11:36:58.869Z,29.50
2018-07-23T11:39:27.154Z,29.70
2018-07-23T11:41:55.387Z,29.80
2018-07-23T11:44:23.659Z,30.00
2018-07-23T11:46:51.923Z,30.30
2018-07-23T11:49:20.179Z,30.60
2018-07-23T11:51:48.423Z,30.80
2018-07-23T11:54:16.689Z,31.00
2018-07-23T11:56:44.944Z,31.10
2018-07-23T11:59:13.198Z,31.40
2018-07-23T12:01:41.439Z,31.50
2018-07-23T12:04:10.403Z,31.70
2018-07-23T12:06:37.933Z,31.90
2018-07-23T12:09:06.138Z,32.10
2018-07-23T12:11:35.158Z,32.40
2018-07-23T12:14:03.439Z,32.40
2018-07-23T12:16:31.686Z,32.50
2018-07-23T12:19:00.686Z,32.90
2018-07-23T12:21:28.951Z,32.80
2018-07-23T12:23:57.183Z,32.90
2018-07-23T12:26:25.391Z,33.10
2018-07-23T12:28:54.393Z,33.10
2018-07-23T12:31:23.364Z,33.30
2018-07-23T12:33:51.595Z,33.20
2018-07-23T12:36:19.867Z,33.40
2018-07-23T12:38:48.075Z,33.60
2018-07-23T12:41:16.311Z,33.90
2018-07-23T12:43:44.582Z,34.00
2018-07-23T12:46:13.608Z,34.10
2018-07-23T12:48:41.859Z,34.10
2018-07-23T12:51:10.073Z,34.30
2018-07-23T12:53:38.348Z,34.50
2018-07-23T12:56:07.280Z,34.80
2018-07-23T12:58:37.247Z,35.10
2018-07-23T13:01:05.472Z,35.10
2018-07-23T13:03:34.489Z,35.40
2018-07-23T13:06:02.716Z,35.40
2018-07-23T13:08:30.970Z,35.50
2018-07-23T13:10:59.185Z,35.40
2018-07-23T13:13:27.404Z,35.30
2018-07-23T13:15:55.659Z,35.20
2018-07-23T13:18:24.633Z,34.60
2018-07-23T13:20:53.668Z,34.60
2018-07-23T13:23:21.925Z,34.60
2018-07-23T13:25:51.017Z,34.70
2018-07-23T13:28:19.213Z,34.70
2018-07-23T13:30:47.448Z,34.90
2018-07-23T13:33:15.709Z,35.00
2018-07-23T13:35:43.915Z,35.20
2018-07-23T13:38:13.044Z,35.50
2018-07-23T13:40:41.166Z,35.50
2018-07-23T13:43:09.419Z,35.70
2018-07-23T13:45:37.654Z,35.70
2018-07-23T13:48:05.977Z,35.70
2018-07-23T13:50:34.208Z,35.70
2018-07-23T13:53:03.175Z,36.00
2018-07-23T13:55:31.394Z,36.00
2018-07-23T13:57:59.629Z,36.20
2018-07-23T14:00:27.858Z,36.30
2018-07-23T14:02:56.092Z,36.40
2018-07-23T14:05:25.139Z,36.60
2018-07-23T14:07:53.382Z,36.50
2018-07-23T14:10:21.603Z,36.60
2018-07-23T14:12:49.830Z,36.70
2018-07-23T14:15:18.076Z,36.50
2018-07-23T14:17:46.350Z,36.50
2018-07-23T14:20:14.558Z,36.30
2018-07-23T14:22:43.571Z,36.10
2018-07-23T14:25:11.785Z,36.20
2018-07-23T14:27:40.004Z,36.00
2018-07-23T14:30:08.316Z,35.90
2018-07-23T14:32:36.490Z,36.00
2018-07-23T14:35:04.746Z,35.90
2018-07-23T14:37:32.960Z,35.70
2018-07-23T14:40:01.235Z,35.50
2018-07-23T14:42:29.477Z,35.20
2018-07-23T14:44:57.740Z,35.10
2018-07-23T14:47:26.752Z,34.50
2018-07-23T14:49:54.975Z,34.50
2018-07-23T14:52:23.176Z,34.40
2018-07-23T14:54:52.180Z,34.60
2018-07-23T14:57:20.399Z,34.60
2018-07-23T14:59:48.654Z,34.80
2018-07-23T15:02:16.860Z,35.00
2018-07-23T15:04:45.102Z,35.10
2018-07-23T15:07:13.339Z,35.10
2018-07-23T15:09:41.629Z,35.10
2018-07-23T15:12:09.846Z,35.00
2018-07-23T15:14:38.113Z,34.90
2018-07-23T15:17:06.373Z,34.80
2018-07-23T15:19:35.354Z,34.60
2018-07-23T15:22:04.351Z,34.60
2018-07-23T15:24:33.370Z,34.70
2018-07-23T15:27:01.614Z,34.60
2018-07-23T15:29:29.835Z,34.80
2018-07-23T15:31:58.038Z,34.90
2018-07-23T15:34:26.296Z,35.00
2018-07-23T15:36:54.515Z,35.10
2018-07-23T15:39:23.537Z,35.30
2018-07-23T15:41:51.762Z,35.30
2018-07-23T15:44:20.137Z,35.40
2018-07-23T15:46:48.262Z,35.60
2018-07-23T15:49:16.477Z,35.50
2018-07-23T15:51:44.906Z,35.60
2018-07-23T15:54:13.928Z,35.50
2018-07-23T15:56:42.174Z,35.50
2018-07-23T15:59:10.417Z,35.60
2018-07-23T16:01:39.378Z,35.60
2018-07-23T16:04:07.612Z,35.60
2018-07-23T16:06:36.663Z,35.60
2018-07-23T16:09:04.875Z,35.60
2018-07-23T16:11:33.149Z,35.50
2018-07-23T16:14:01.389Z,35.50
2018-07-23T16:16:29.601Z,35.50
2018-07-23T16:18:57.932Z,35.30
2018-07-23T16:21:26.096Z,35.20
2018-07-23T16:23:54.329Z,35.00
2018-07-23T16:26:23.365Z,34.80
2018-07-23T16:28:51.573Z,34.50
2018-07-23T16:31:19.849Z,34.30
2018-07-23T16:33:48.094Z,34.10
2018-07-23T16:36:16.359Z,33.80
2018-07-23T16:38:45.342Z,33.40
2018-07-23T16:41:13.562Z,33.40
2018-07-23T16:43:41.759Z,33.30
2018-07-23T16:46:10.022Z,33.20
2018-07-23T16:48:38.270Z,33.10
2018-07-23T16:51:07.280Z,33.20
2018-07-23T16:53:35.500Z,33.20
2018-07-23T16:56:03.723Z,33.20
2018-07-23T16:58:31.936Z,33.30
2018-07-23T17:01:00.201Z,33.30
2018-07-23T17:03:28.440Z,33.40
2018-07-23T17:05:56.659Z,33.40
2018-07-23T17:08:24.859Z,33.50
2018-07-23T17:10:53.127Z,33.50
2018-07-23T17:13:21.304Z,33.50
2018-07-23T17:15:49.570Z,33.40
2018-07-23T17:18:17.734Z,33.30
2018-07-23T17:20:45.958Z,33.20
2018-07-23T17:23:14.186Z,33.00
2018-07-23T17:25:42.409Z,32.90
2018-07-23T17:28:11.427Z,32.60
2018-07-23T17:30:39.693Z,32.60
2018-07-23T17:33:07.903Z,32.50
2018-07-23T17:35:36.202Z,32.30
2018-07-23T17:38:04.436Z,32.20
2018-07-23T17:40:32.668Z,32.10
2018-07-23T17:43:00.878Z,32.00
2018-07-23T17:45:29.105Z,31.80
2018-07-23T17:47:57.349Z,31.70
2018-07-23T17:50:25.576Z,31.60
2018-07-23T17:52:54.601Z,31.40
2018-07-23T17:55:22.869Z,31.40
2018-07-23T17:57:51.875Z,31.20
2018-07-23T18:00:20.098Z,31.20
2018-07-23T18:02:48.309Z,31.10
2018-07-23T18:05:16.590Z,31.00
2018-07-23T18:07:45.615Z,30.90
2018-07-23T18:10:14.635Z,30.90
2018-07-23T18:12:42.877Z,30.90
2018-07-23T18:15:11.107Z,30.70
2018-07-23T18:17:39.328Z,30.70
2018-07-23T18:20:07.557Z,30.70
2018-07-23T18:22:35.796Z,30.60
2018-07-23T18:25:04.050Z,30.50
2018-07-23T18:27:33.017Z,30.30
2018-07-23T18:30:02.057Z,30.20
2018-07-23T18:32:30.303Z,30.20
2018-07-23T18:34:58.579Z,30.10
2018-07-23T18:37:27.559Z,29.90
2018-07-23T18:39:56.573Z,29.80
2018-07-23T18:42:24.827Z,29.80
2018-07-23T18:44:53.088Z,29.70
2018-07-23T18:47:21.306Z,29.60
2018-07-23T18:49:49.621Z,29.50
2018-07-23T18:52:17.884Z,29.30
2018-07-23T18:54:46.147Z,29.20
2018-07-23T18:57:14.378Z,29.10
2018-07-23T18:59:42.656Z,28.90
2018-07-23T19:02:10.877Z,28.70
2018-07-23T19:04:39.110Z,28.50
2018-07-23T19:07:07.410Z,28.30
2018-07-23T19:09:36.423Z,27.90
2018-07-23T19:12:04.685Z,27.90
2018-07-23T19:14:32.901Z,27.70
2018-07-23T19:17:01.389Z,27.50
2018-07-23T19:19:29.637Z,27.00
2018-07-23T19:21:57.910Z,26.50
2018-07-23T19:24:26.217Z,26.40
2018-07-23T19:26:54.496Z,26.40
2018-07-23T19:29:22.708Z,26.20
2018-07-23T19:31:50.979Z,26.20
2018-07-23T19:34:19.223Z,26.00
2018-07-23T19:36:47.474Z,26.00
2018-07-23T19:39:15.734Z,25.90
2018-07-23T19:41:44.709Z,25.60
2018-07-23T19:44:12.926Z,25.60
2018-07-23T19:46:41.145Z,25.40
2018-07-23T19:49:09.416Z,25.30
2018-07-23T19:51:37.690Z,25.20
2018-07-23T19:54:05.898Z,25.10
2018-07-23T19:56:34.962Z,24.70
2018-07-23T19:59:03.220Z,24.70
2018-07-23T20:01:31.461Z,24.60
2018-07-23T20:04:00.439Z,24.60
2018-07-23T20:06:29.480Z,24.60
2018-07-23T20:08:57.690Z,24.60
2018-07-23T20:11:25.986Z,24.50
2018-07-23T20:13:54.229Z,24.30
2018-07-23T20:16:22.455Z,24.10
2018-07-23T20:18:50.663Z,23.80
2018-07-23T20:21:18.936Z,23.70
2018-07-23T20:23:47.175Z,23.50
2018-07-23T20:26:16.187Z,23.10
2018-07-23T20:28:44.410Z,23.10
2018-07-23T20:31:12.693Z,23.00
2018-07-23T20:33:40.917Z,23.10
2018-07-23T20:36:09.189Z,23.10
2018-07-23T20:38:37.452Z,23.10
2018-07-23T20:41:05.714Z,23.20
2018-07-23T20:43:33.973Z,23.20
2018-07-23T20:46:02.236Z,23.20
2018-07-23T20:48:30.475Z,23.20
2018-07-23T20:50:58.725Z,23.20
2018-07-23T20:53:26.928Z,23.10
2018-07-23T20:55:55.155Z,23.10
2018-07-23T20:58:23.403Z,23.10
2018-07-23T21:00:51.648Z,23.00
2018-07-23T21:03:20.628Z,22.90
2018-07-23T21:05:49.622Z,22.90
2018-07-23T21:08:17.866Z,22.90
2018-07-23T21:10:46.127Z,22.80
2018-07-23T21:13:14.369Z,22.70
2018-07-23T21:15:43.388Z,22.70
2018-07-23T21:18:11.584Z,22.60
2018-07-23T21:20:39.806Z,22.60
2018-07-23T21:23:08.808Z,22.50
2018-07-23T21:25:37.777Z,22.40
2018-07-23T21:28:06.046Z,22.40
2018-07-23T21:30:34.249Z,22.30
2018-07-23T21:33:03.286Z,22.30
2018-07-23T21:35:31.522Z,22.20
2018-07-23T21:38:00.551Z,22.20
2018-07-23T21:40:28.789Z,22.20
2018-07-23T21:42:57.782Z,22.10
2018-07-23T21:45:26.811Z,22.10
2018-07-23T21:47:55.083Z,22.10
2018-07-23T21:50:23.326Z,22.10
2018-07-23T21:52:52.303Z,22.10
2018-07-23T21:55:20.546Z,22.00
2018-07-23T21:57:48.840Z,22.10
2018-07-23T22:00:17.034Z,22.00
2018-07-23T22:02:45.310Z,21.90
2018-07-23T22:05:13.559Z,21.90
2018-07-23T22:07:41.776Z,21.80
2018-07-23T22:10:10.745Z,21.80
2018-07-23T22:12:38.996Z,21.70
2018-07-23T22:15:07.207Z,21.70
2018-07-23T22:17:35.428Z,21.70
2018-07-23T22:20:03.686Z,21.70
2018-07-23T22:22:32.652Z,21.50
2018-07-23T22:25:00.861Z,21.40
2018-07-23T22:27:29.121Z,21.40
2018-07-23T22:29:57.326Z,21.40
2018-07-23T22:32:25.575Z,21.30
2018-07-23T22:34:54.548Z,21.20
2018-07-23T22:37:22.811Z,21.20
2018-07-23T22:39:51.013Z,21.20
2018-07-23T22:42:19.232Z,21.20
2018-07-23T22:44:47.444Z,21.10
2018-07-23T22:47:15.651Z,21.10
2018-07-23T22:49:44.964Z,21.10
2018-07-23T22:52:13.270Z,21.10
2018-07-23T22:54:41.511Z,21.10
2018-07-23T22:57:10.532Z,21.00
2018-07-23T22:59:38.731Z,21.00
2018-07-23T23:02:06.988Z,20.90
2018-07-23T23:04:35.188Z,20.80
2018-07-23T23:07:04.207Z,20.60
2018-07-23T23:09:32.411Z,20.50
2018-07-23T23:12:00.635Z,20.60
2018-07-23T23:14:28.879Z,20.60
2018-07-23T23:16:57.087Z,20.60
2018-07-23T23:19:25.362Z,20.50
2018-07-23T23:21:53.608Z,20.50
2018-07-23T23:24:21.849Z,20.50
2018-07-23T23:26:50.874Z,20.40
2018-07-23T23:29:19.119Z,20.40
2018-07-23T23:31:47.371Z,20.40
2018-07-23T23:34:15.617Z,20.40
2018-07-23T23:36:43.862Z,20.40
2018-07-23T23:39:12.870Z,20.30
2018-07-23T23:41:41.887Z,20.30
2018-07-23T23:44:10.125Z,20.30
2018-07-23T23:46:39.135Z,20.20
2018-07-23T23:49:07.326Z,20.20
2018-07-23T23:51:35.552Z,20.20
2018-07-23T23:54:03.808Z,20.10
2018-07-23T23:56:32.019Z,20.10
2018-07-23T23:59:00.988Z,20.00
